Time;durP1;ratioP1;P1;durP2;ratioP2;P2;SDS_P1;SDS_P2;PMS_P1;PMS_P2;Temp;Humidity;BMP_temperature;BMP_pressure;BME280_temperature;BME280_humidity;BME280_pressure;Samples;Min_cycle;Max_cycle;Signal;HPM_P1;HPM_P2
2021/08/05 00:02:11;;;;;;;6.90;3.92;;;11.80;99.90;;;;;;5054987;28;20059;-58
2021/08/05 00:04:38;;;;;;;7.28;4.13;;;11.70;99.90;;;;;;5056064;28;20580;-58
2021/08/05 00:07:04;;;;;;;8.15;3.97;;;11.70;99.90;;;;;;5052224;28;20028;-58
2021/08/05 00:09:30;;;;;;;7.10;4.43;;;11.70;99.90;;;;;;5056154;28;20040;-58
2021/08/05 00:11:56;;;;;;;4.90;3.90;;;11.70;99.90;;;;;;5055093;28;20082;-58
2021/08/05 00:14:22;;;;;;;6.13;4.30;;;11.70;99.90;;;;;;5057457;28;20559;-58
2021/08/05 00:16:48;;;;;;;7.43;4.65;;;11.70;99.90;;;;;;5054711;28;20033;-59
2021/08/05 00:19:14;;;;;;;9.73;4.13;;;11.70;99.90;;;;;;5058815;28;20073;-58
2021/08/05 00:21:40;;;;;;;5.43;4.15;;;11.60;99.90;;;;;;5054732;28;20032;-58
2021/08/05 00:24:06;;;;;;;7.13;4.93;;;11.60;99.90;;;;;;5056572;28;20032;-58
2021/08/05 00:26:32;;;;;;;9.93;4.70;;;11.60;99.90;;;;;;5053175;28;20465;-58
2021/08/05 00:28:57;;;;;;;5.38;4.43;;;11.60;99.90;;;;;;5055716;28;20082;-58
2021/08/05 00:31:23;;;;;;;7.65;4.53;;;11.60;99.90;;;;;;5054503;28;20113;-58
2021/08/05 00:33:49;;;;;;;7.45;5.30;;;11.60;99.90;;;;;;5051803;28;20491;-58
2021/08/05 00:36:15;;;;;;;8.90;5.28;;;11.60;99.90;;;;;;5057237;28;20566;-58
2021/08/05 00:38:40;;;;;;;9.90;5.30;;;11.60;99.90;;;;;;5054543;28;20131;-58
2021/08/05 00:41:06;;;;;;;5.32;4.43;;;11.60;99.90;;;;;;5053365;28;20037;-58
2021/08/05 00:43:34;;;;;;;7.47;5.60;;;11.50;99.90;;;;;;5054232;28;20036;-58
2021/08/05 00:46:02;;;;;;;8.50;5.93;;;11.50;99.90;;;;;;5053531;28;20025;-58
2021/08/05 00:48:29;;;;;;;8.93;5.75;;;11.50;99.90;;;;;;5054612;28;20033;-58
2021/08/05 00:50:56;;;;;;;8.32;6.20;;;11.40;99.90;;;;;;5056952;28;20128;-58
2021/08/05 00:53:22;;;;;;;10.32;5.70;;;11.40;99.90;;;;;;5055049;28;20036;-59
2021/08/05 00:55:49;;;;;;;7.38;5.47;;;11.40;99.90;;;;;;5049786;28;20562;-58
2021/08/05 00:58:14;;;;;;;6.43;4.50;;;11.40;99.90;;;;;;5052554;28;20500;-58
2021/08/05 01:00:46;;;;;;;9.85;5.93;;;11.30;99.90;;;;;;5054488;28;20174;-58
2021/08/05 01:03:23;;;;;;;6.28;4.88;;;11.20;99.90;;;;;;5055410;28;20533;-58
2021/08/05 01:05:57;;;;;;;6.50;4.68;;;11.30;99.90;;;;;;5049472;28;20460;-58
2021/08/05 01:08:25;;;;;;;7.30;4.30;;;11.40;99.90;;;;;;5056842;28;20483;-59
2021/08/05 01:10:56;;;;;;;6.75;4.75;;;11.40;99.90;;;;;;5055189;28;20038;-58
2021/08/05 01:13:36;;;;;;;6.05;4.10;;;11.50;99.90;;;;;;5051324;28;20028;-58
2021/08/05 01:16:07;;;;;;;;;;;11.50;99.90;;;;;;5055169;28;20135;-58
2021/08/05 01:18:36;;;;;;;6.38;4.47;;;11.50;99.90;;;;;;5053327;28;19924;-58
2021/08/05 01:21:09;;;;;;;6.75;4.30;;;11.50;99.90;;;;;;5057339;28;20063;-58
2021/08/05 01:23:41;;;;;;;9.80;5.40;;;11.50;99.90;;;;;;5050538;28;20036;-58
2021/08/05 01:26:36;;;;;;;11.93;5.20;;;11.40;99.90;;;;;;5054187;28;20713;-58
2021/08/05 01:29:04;;;;;;;6.30;4.63;;;11.40;99.90;;;;;;5041899;28;20196;-58
2021/08/05 01:31:31;;;;;;;8.68;4.72;;;11.30;99.90;;;;;;5055538;28;20387;-59
2021/08/05 01:33:57;;;;;;;8.32;4.63;;;11.30;99.90;;;;;;5051115;28;20400;-58
2021/08/05 01:36:26;;;;;;;7.45;5.03;;;11.30;99.90;;;;;;5056645;28;20042;-58
2021/08/05 01:38:53;;;;;;;6.82;4.88;;;11.20;99.90;;;;;;5055740;28;20057;-58
2021/08/05 01:41:19;;;;;;;7.38;4.65;;;11.20;99.90;;;;;;5053558;28;20120;-58
2021/08/05 01:43:47;;;;;;;6.70;4.25;;;11.20;99.90;;;;;;5052996;28;20060;-58
2021/08/05 01:46:14;;;;;;;5.20;4.30;;;11.30;99.90;;;;;;5055248;28;20537;-58
2021/08/05 01:48:40;;;;;;;6.00;4.88;;;11.30;99.90;;;;;;5054132;28;20081;-58
2021/08/05 01:51:06;;;;;;;8.80;4.63;;;11.30;99.90;;;;;;5056025;28;20329;-58
2021/08/05 01:53:33;;;;;;;11.45;5.72;;;11.30;99.90;;;;;;5051704;28;20065;-58
2021/08/05 01:55:59;;;;;;;5.70;4.63;;;11.20;99.90;;;;;;5051624;28;20090;-58
2021/08/05 01:58:25;;;;;;;8.05;5.20;;;11.20;99.90;;;;;;5056921;28;20189;-58
2021/08/05 02:00:51;;;;;;;9.32;5.25;;;11.10;99.90;;;;;;5053504;28;20028;-58
2021/08/05 02:03:17;;;;;;;7.72;4.97;;;11.10;99.90;;;;;;5052497;28;20534;-58
2021/08/05 02:06:16;;;;;;;8.45;5.38;;;11.10;99.90;;;;;;5054372;28;20023;-58
2021/08/05 02:09:16;;;;;;;8.48;5.13;;;11.10;99.90;;;;;;5054290;28;20401;-58
2021/08/05 02:11:45;;;;;;;;;;;11.10;99.90;;;;;;5046530;28;20317;-58
2021/08/05 02:14:15;;;;;;;5.88;4.55;;;11.10;99.90;;;;;;5054722;28;20316;-58
2021/08/05 02:16:45;;;;;;;8.68;5.00;;;11.00;99.90;;;;;;5054292;28;20032;-59
2021/08/05 02:19:12;;;;;;;7.93;6.20;;;11.00;99.90;;;;;;5053879;28;20463;-58
2021/08/05 02:21:42;;;;;;;7.90;5.63;;;10.90;99.90;;;;;;5052965;28;20047;-58
2021/08/05 02:24:08;;;;;;;9.10;6.40;;;10.90;99.90;;;;;;5049296;28;20025;-59
2021/08/05 02:26:35;;;;;;;9.07;5.95;;;10.80;99.90;;;;;;5052742;28;20055;-59
2021/08/05 02:29:01;;;;;;;8.23;5.75;;;10.80;99.90;;;;;;5055321;28;20025;-59
2021/08/05 02:31:27;;;;;;;9.38;5.47;;;10.80;99.90;;;;;;5051738;28;20614;-58
2021/08/05 02:33:57;;;;;;;7.05;5.25;;;10.80;99.90;;;;;;5053156;28;20016;-58
2021/08/05 02:36:23;;;;;;;7.10;5.45;;;11.00;99.90;;;;;;5052775;28;20855;-59
2021/08/05 02:38:49;;;;;;;6.63;4.57;;;11.00;99.90;;;;;;5050366;28;20445;-58
2021/08/05 02:41:15;;;;;;;7.10;5.00;;;11.00;99.90;;;;;;5052632;28;20326;-58
2021/08/05 02:43:42;;;;;;;8.65;5.63;;;11.00;99.90;;;;;;5054811;28;20032;-59
2021/08/05 02:46:08;;;;;;;7.07;5.43;;;11.00;99.90;;;;;;5049994;28;20028;-58
2021/08/05 02:48:36;;;;;;;9.23;5.35;;;10.90;99.90;;;;;;5051197;28;20445;-58
2021/08/05 02:51:03;;;;;;;7.68;5.35;;;10.90;99.90;;;;;;5053733;28;20129;-59
2021/08/05 02:53:30;;;;;;;7.35;5.50;;;10.90;99.90;;;;;;5052811;28;20040;-58
2021/08/05 02:55:56;;;;;;;9.43;5.50;;;10.90;99.90;;;;;;5053583;28;20499;-58
2021/08/05 02:58:23;;;;;;;7.85;5.53;;;10.90;99.90;;;;;;5052468;28;20605;-59
2021/08/05 03:00:49;;;;;;;16.20;7.07;;;10.90;99.90;;;;;;5053816;28;20434;-59
2021/08/05 03:03:23;;;;;;;9.23;6.35;;;10.80;99.90;;;;;;5053977;28;20028;-59
2021/08/05 03:05:51;;;;;;;9.98;6.82;;;10.80;99.90;;;;;;5050323;28;20025;-58
2021/08/05 03:08:16;;;;;;;10.00;6.80;;;10.70;99.90;;;;;;5053199;28;20119;-58
2021/08/05 03:10:42;;;;;;;7.55;5.43;;;10.70;99.90;;;;;;5052421;28;20832;-59
2021/08/05 03:13:08;;;;;;;8.77;6.15;;;10.70;99.90;;;;;;5053297;28;20028;-59
2021/08/05 03:15:34;;;;;;;9.57;5.93;;;10.70;99.90;;;;;;5050937;28;20093;-59
2021/08/05 03:18:00;;;;;;;7.97;5.72;;;10.70;99.90;;;;;;5053034;28;20226;-58
2021/08/05 03:20:25;;;;;;;9.45;6.18;;;10.80;99.90;;;;;;5051345;28;20036;-59
2021/08/05 03:22:51;;;;;;;10.48;6.10;;;10.70;99.90;;;;;;5050029;28;20025;-60
2021/08/05 03:25:17;;;;;;;8.88;5.85;;;10.70;99.90;;;;;;5050880;28;20037;-58
2021/08/05 03:27:43;;;;;;;9.88;6.03;;;10.70;99.90;;;;;;5053942;28;20040;-58
2021/08/05 03:30:10;;;;;;;11.40;6.50;;;10.80;99.90;;;;;;5053224;28;20578;-59
2021/08/05 03:32:36;;;;;;;9.85;6.63;;;10.70;99.90;;;;;;5055232;28;20033;-58
2021/08/05 03:35:02;;;;;;;10.95;7.32;;;10.70;99.90;;;;;;5048812;28;20075;-59
2021/08/05 03:37:28;;;;;;;8.95;6.50;;;10.70;99.90;;;;;;5047020;28;20040;-59
2021/08/05 03:39:54;;;;;;;12.80;7.75;;;10.60;99.90;;;;;;5054535;28;20542;-58
2021/08/05 03:42:19;;;;;;;9.57;6.85;;;10.60;99.90;;;;;;5057683;28;20067;-58
2021/08/05 03:44:45;;;;;;;8.95;5.85;;;10.60;99.90;;;;;;5055713;28;20025;-58
2021/08/05 03:47:11;;;;;;;10.88;6.63;;;10.60;99.90;;;;;;5049543;28;22123;-58
2021/08/05 03:49:37;;;;;;;9.90;7.30;;;10.60;99.90;;;;;;5057308;28;20445;-59
2021/08/05 03:52:03;;;;;;;10.73;7.05;;;10.70;99.90;;;;;;5056989;28;20383;-59
2021/08/05 03:54:28;;;;;;;10.93;7.10;;;10.70;99.90;;;;;;5056804;28;20035;-59
2021/08/05 03:56:54;;;;;;;9.68;6.20;;;10.70;99.90;;;;;;5056136;28;20029;-59
2021/08/05 03:59:20;;;;;;;11.23;6.53;;;10.60;99.90;;;;;;5056366;28;20121;-59
2021/08/05 04:01:46;;;;;;;10.07;7.10;;;10.60;99.90;;;;;;5054954;28;20036;-59
2021/08/05 04:04:11;;;;;;;8.55;6.43;;;10.60;99.90;;;;;;5054177;28;20797;-59
2021/08/05 04:06:37;;;;;;;10.98;6.80;;;10.70;99.90;;;;;;5055082;28;20483;-59
2021/08/05 04:09:03;;;;;;;11.80;6.68;;;10.80;99.90;;;;;;5056523;28;20116;-59
2021/08/05 04:11:29;;;;;;;11.85;7.57;;;10.80;99.90;;;;;;5057552;28;20068;-59
2021/08/05 04:13:55;;;;;;;8.80;6.72;;;10.90;99.90;;;;;;5054028;28;20056;-59
2021/08/05 04:16:20;;;;;;;10.10;7.35;;;10.90;99.90;;;;;;5048298;28;20036;-59
2021/08/05 04:18:46;;;;;;;8.98;6.35;;;11.00;99.90;;;;;;5054298;28;20047;-59
2021/08/05 04:21:12;;;;;;;9.32;6.15;;;11.10;99.90;;;;;;5052097;28;20411;-59
2021/08/05 04:23:38;;;;;;;8.45;6.32;;;11.20;99.90;;;;;;5046040;28;20031;-59
2021/08/05 04:26:03;;;;;;;10.50;7.65;;;11.30;99.90;;;;;;5050965;28;20063;-59
2021/08/05 04:28:30;;;;;;;8.80;6.60;;;11.40;99.90;;;;;;5052584;28;20094;-59
2021/08/05 04:30:56;;;;;;;8.30;6.22;;;11.50;99.90;;;;;;5052779;28;20660;-59
2021/08/05 04:33:22;;;;;;;8.48;5.82;;;11.50;99.90;;;;;;5054310;28;20036;-59
2021/08/05 04:35:48;;;;;;;11.30;6.57;;;11.50;99.90;;;;;;5055283;28;20578;-62
2021/08/05 04:38:14;;;;;;;10.30;6.88;;;11.50;99.90;;;;;;5048463;28;20555;-59
2021/08/05 04:40:41;;;;;;;9.48;7.40;;;11.50;99.90;;;;;;5052719;28;20662;-59
2021/08/05 04:43:07;;;;;;;9.52;7.38;;;11.40;99.90;;;;;;5052605;28;20151;-59
2021/08/05 04:45:32;;;;;;;12.10;6.68;;;11.30;99.90;;;;;;5045818;28;20399;-59
2021/08/05 04:48:06;;;;;;;9.95;6.90;;;11.30;99.90;;;;;;5050299;28;20033;-59
2021/08/05 04:50:35;;;;;;;9.30;6.32;;;11.30;99.90;;;;;;5053586;28;20025;-59
2021/08/05 04:53:02;;;;;;;10.32;6.60;;;11.40;99.90;;;;;;5053433;28;20029;-59
2021/08/05 04:55:29;;;;;;;8.95;6.88;;;11.40;99.90;;;;;;5051271;28;20451;-59
2021/08/05 04:57:59;;;;;;;10.32;7.30;;;11.50;99.90;;;;;;5051532;28;20044;-59
2021/08/05 05:00:28;;;;;;;9.50;7.00;;;11.50;99.90;;;;;;5055745;28;20074;-59
2021/08/05 05:02:54;;;;;;;8.90;6.55;;;11.60;99.90;;;;;;5043815;28;20028;-59
2021/08/05 05:05:21;;;;;;;9.88;6.50;;;11.60;99.90;;;;;;5055385;28;20054;-59
2021/08/05 05:07:48;;;;;;;9.20;6.97;;;11.70;99.90;;;;;;5054108;28;20039;-59
2021/08/05 05:10:14;;;;;;;9.05;6.53;;;11.70;99.90;;;;;;5055876;28;20392;-59
2021/08/05 05:12:41;;;;;;;9.35;6.25;;;11.70;99.90;;;;;;5052375;28;20029;-59
2021/08/05 05:15:08;;;;;;;10.07;6.63;;;11.90;99.90;;;;;;5051604;28;20037;-59
2021/08/05 05:42:24;;;;;;;7.47;5.63;;;12.70;99.90;;;;;;5079034;27;20063;-59
2021/08/05 05:44:51;;;;;;;8.60;5.80;;;12.70;99.90;;;;;;5070814;28;20043;-59
2021/08/05 05:47:17;;;;;;;9.02;5.53;;;12.70;99.90;;;;;;5072850;28;20024;-59
2021/08/05 05:49:43;;;;;;;9.25;5.40;;;12.80;99.90;;;;;;5073918;28;20039;-58
2021/08/05 05:52:10;;;;;;;8.25;5.35;;;12.90;99.90;;;;;;5061125;28;20049;-59
2021/08/05 05:54:36;;;;;;;9.57;5.45;;;13.10;99.90;;;;;;5065300;28;20066;-59
2021/08/05 05:57:03;;;;;;;20.23;6.50;;;13.30;99.90;;;;;;5073150;28;20056;-59
2021/08/05 05:59:28;;;;;;;8.30;5.22;;;13.40;99.90;;;;;;5071946;28;20122;-59
2021/08/05 06:01:54;;;;;;;6.85;5.57;;;13.60;99.90;;;;;;5071282;28;20032;-59
2021/08/05 06:04:20;;;;;;;7.10;5.22;;;13.70;99.90;;;;;;5069112;28;20036;-60
2021/08/05 06:06:46;;;;;;;10.60;6.38;;;13.80;99.90;;;;;;5073290;28;20399;-59
2021/08/05 06:09:12;;;;;;;9.60;5.63;;;13.90;99.90;;;;;;5075299;28;20492;-59
2021/08/05 06:11:38;;;;;;;10.00;5.80;;;14.00;99.90;;;;;;5071470;28;20054;-59
2021/08/05 06:14:04;;;;;;;10.93;5.13;;;13.90;99.90;;;;;;5073212;28;20097;-59
2021/08/05 06:16:29;;;;;;;8.02;5.35;;;13.90;99.90;;;;;;5069493;28;20506;-59
2021/08/05 06:18:55;;;;;;;6.65;5.10;;;13.90;99.90;;;;;;5069822;28;20067;-59
2021/08/05 06:21:22;;;;;;;8.23;5.20;;;14.00;99.90;;;;;;5074317;28;20051;-59
2021/08/05 06:23:48;;;;;;;10.75;5.97;;;14.00;99.90;;;;;;5067289;28;20127;-58
2021/08/05 06:26:14;;;;;;;8.65;5.28;;;14.10;99.90;;;;;;5075424;28;20032;-59
2021/08/05 06:28:40;;;;;;;13.23;5.13;;;14.20;99.90;;;;;;5074228;28;20051;-59
2021/08/05 06:31:06;;;;;;;7.18;5.28;;;14.40;99.90;;;;;;5073459;28;20039;-59
2021/08/05 06:33:32;;;;;;;9.50;4.93;;;14.50;99.90;;;;;;5075466;28;20032;-59
2021/08/05 06:35:58;;;;;;;10.93;5.35;;;14.60;99.90;;;;;;5075352;28;20056;-59
2021/08/05 06:38:24;;;;;;;11.50;5.30;;;14.50;99.90;;;;;;5074421;28;20135;-59
2021/08/05 06:40:50;;;;;;;6.97;4.63;;;14.60;99.90;;;;;;5077296;28;20794;-57
2021/08/05 06:43:16;;;;;;;8.88;4.45;;;14.60;99.90;;;;;;5073681;28;20450;-60
2021/08/05 06:45:41;;;;;;;11.60;5.60;;;14.70;99.90;;;;;;5073796;28;20031;-60
2021/08/05 06:48:08;;;;;;;6.75;4.30;;;14.70;99.90;;;;;;5074316;28;20032;-58
2021/08/05 06:50:33;;;;;;;9.57;4.75;;;14.90;99.90;;;;;;5073204;28;20066;-58
2021/08/05 06:53:00;;;;;;;7.75;4.32;;;14.90;99.90;;;;;;5074414;28;20217;-58
2021/08/05 06:55:26;;;;;;;9.30;4.65;;;15.00;99.90;;;;;;5052783;28;20032;-59
2021/08/05 06:57:52;;;;;;;9.13;5.00;;;15.10;99.90;;;;;;5072592;28;20056;-59
2021/08/05 07:00:17;;;;;;;6.70;4.25;;;15.30;99.90;;;;;;5050889;28;20059;-60
2021/08/05 07:02:43;;;;;;;7.22;3.70;;;15.40;99.90;;;;;;5071849;28;20071;-59
2021/08/05 07:05:10;;;;;;;9.40;3.97;;;15.60;99.90;;;;;;5069747;28;20799;-59
2021/08/05 07:07:36;;;;;;;7.97;3.63;;;15.60;99.90;;;;;;5068203;28;20035;-59
2021/08/05 07:10:03;;;;;;;8.10;3.45;;;15.80;99.90;;;;;;5070984;28;20131;-60
2021/08/05 07:12:29;;;;;;;4.45;3.35;;;15.90;99.90;;;;;;5075917;28;20534;-58
2021/08/05 07:14:55;;;;;;;6.32;4.40;;;16.00;99.90;;;;;;5074267;28;20529;-60
2021/08/05 07:17:21;;;;;;;4.28;3.60;;;16.10;99.90;;;;;;5074031;28;20032;-58
2021/08/05 07:19:47;;;;;;;6.82;3.63;;;16.10;99.90;;;;;;5074328;28;20035;-58
2021/08/05 07:22:13;;;;;;;6.57;3.90;;;16.30;99.90;;;;;;5072728;28;20076;-59
2021/08/05 07:24:39;;;;;;;10.73;4.20;;;16.30;99.90;;;;;;5073518;28;22597;-59
2021/08/05 07:27:06;;;;;;;5.90;3.60;;;16.40;99.90;;;;;;5075945;28;20039;-59
2021/08/05 07:29:31;;;;;;;7.93;3.80;;;16.60;99.90;;;;;;5074997;28;20031;-59
2021/08/05 07:32:04;;;;;;;8.18;3.90;;;16.70;99.90;;;;;;5071037;28;20023;-59
2021/08/05 07:34:34;;;;;;;6.40;3.90;;;16.80;99.90;;;;;;5071779;28;20040;-60
2021/08/05 07:37:00;;;;;;;5.65;3.80;;;17.10;99.90;;;;;;5072682;28;20020;-59
2021/08/05 07:39:26;;;;;;;7.95;3.40;;;17.40;99.90;;;;;;5073757;28;20028;-59
2021/08/05 07:41:52;;;;;;;4.50;3.40;;;17.70;99.90;;;;;;5077195;28;20034;-59
2021/08/05 07:44:19;;;;;;;6.85;3.25;;;17.90;99.90;;;;;;5077461;28;20613;-59
2021/08/05 07:46:46;;;;;;;4.60;2.70;;;18.10;99.90;;;;;;5075659;28;20036;-59
2021/08/05 07:49:12;;;;;;;5.90;3.10;;;18.20;99.90;;;;;;5076177;28;20031;-59
2021/08/05 07:51:38;;;;;;;5.95;3.30;;;18.40;99.90;;;;;;5075287;28;20093;-59
2021/08/05 07:54:04;;;;;;;5.90;2.58;;;18.80;99.90;;;;;;5076766;28;21005;-59
2021/08/05 07:56:30;;;;;;;5.90;2.95;;;19.30;99.90;;;;;;5077742;28;20118;-57
2021/08/05 07:58:56;;;;;;;3.78;2.67;;;19.50;99.90;;;;;;5072687;28;20414;-57
2021/08/05 08:01:22;;;;;;;6.60;2.72;;;19.60;99.90;;;;;;5076150;28;20039;-59
2021/08/05 08:03:48;;;;;;;3.40;2.50;;;19.40;99.90;;;;;;5078338;28;20031;-59
2021/08/05 08:06:14;;;;;;;5.65;2.72;;;19.30;99.90;;;;;;5074187;28;20025;-59
2021/08/05 08:08:40;;;;;;;4.82;2.55;;;19.20;99.90;;;;;;5078013;28;20032;-59
2021/08/05 08:11:06;;;;;;;10.05;2.50;;;19.10;99.90;;;;;;5073477;28;20039;-59
2021/08/05 08:13:32;;;;;;;3.72;2.33;;;18.90;99.90;;;;;;5077056;28;20060;-59
2021/08/05 08:15:58;;;;;;;9.18;3.03;;;18.90;99.90;;;;;;5080552;28;20237;-60
2021/08/05 08:18:24;;;;;;;6.97;2.60;;;19.20;99.90;;;;;;5073905;28;20047;-60
2021/08/05 08:20:50;;;;;;;3.45;2.42;;;19.50;99.90;;;;;;5076748;28;21024;-60
2021/08/05 08:23:16;;;;;;;3.97;2.00;;;19.70;99.90;;;;;;5076384;28;20139;-60
2021/08/05 08:25:42;;;;;;;4.65;2.17;;;19.70;99.90;;;;;;5069199;28;20594;-59
2021/08/05 08:28:08;;;;;;;7.13;1.88;;;19.70;99.90;;;;;;5073482;28;20040;-60
2021/08/05 08:30:34;;;;;;;3.80;1.85;;;19.70;99.90;;;;;;5074859;28;20028;-59
2021/08/05 08:33:00;;;;;;;5.05;1.95;;;19.70;99.90;;;;;;5077296;28;20048;-58
2021/08/05 08:35:27;;;;;;;2.88;1.50;;;19.70;99.90;;;;;;5074156;28;20028;-60
2021/08/05 08:37:52;;;;;;;4.32;2.13;;;19.80;99.90;;;;;;5072482;28;20044;-59
2021/08/05 08:40:19;;;;;;;5.88;2.28;;;19.70;99.90;;;;;;5069643;28;20039;-59
2021/08/05 08:42:45;;;;;;;5.95;2.65;;;19.40;99.90;;;;;;5058989;28;20150;-59
2021/08/05 08:45:14;;;;;;;4.78;1.90;;;19.20;99.90;;;;;;5079384;28;20032;-59
2021/08/05 08:47:41;;;;;;;7.38;2.22;;;19.20;99.90;;;;;;5078182;28;20071;-58
2021/08/05 08:50:08;;;;;;;4.35;1.98;;;19.10;99.90;;;;;;5077653;28;20032;-59
2021/08/05 08:52:36;;;;;;;7.03;2.38;;;19.30;99.90;;;;;;5076926;28;20459;-59
2021/08/05 08:55:03;;;;;;;6.82;2.40;;;19.30;99.90;;;;;;5076280;28;20055;-58
2021/08/05 08:57:32;;;;;;;12.57;2.70;;;19.60;99.90;;;;;;5079174;28;20036;-59
2021/08/05 08:59:59;;;;;;;3.53;1.73;;;19.60;99.90;;;;;;5077804;28;20026;-60
2021/08/05 09:02:25;;;;;;;3.15;1.83;;;19.50;99.90;;;;;;5076654;28;20055;-59
2021/08/05 09:04:53;;;;;;;14.07;2.42;;;19.60;99.90;;;;;;5078512;28;20024;-58
2021/08/05 09:07:20;;;;;;;6.80;2.25;;;19.70;99.90;;;;;;5076733;28;20047;-60
2021/08/05 09:09:46;;;;;;;4.93;2.25;;;19.60;99.90;;;;;;5076416;28;20032;-58
2021/08/05 09:12:15;;;;;;;6.18;2.97;;;19.50;99.90;;;;;;5077275;28;20089;-59
2021/08/05 09:14:45;;;;;;;6.85;2.67;;;19.50;99.90;;;;;;5072855;28;22563;-59
2021/08/05 09:17:24;;;;;;;4.05;1.88;;;19.30;99.90;;;;;;5077419;28;20127;-59
2021/08/05 09:19:53;;;;;;;3.47;2.10;;;19.10;99.90;;;;;;5056102;28;20551;-59
2021/08/05 09:22:48;;;;;;;2.95;2.17;;;19.00;99.90;;;;;;5074099;28;20023;-59
2021/08/05 09:25:34;;;;;;;5.32;2.45;;;18.90;99.90;;;;;;5058233;28;20024;-59
2021/08/05 09:28:14;;;;;;;5.18;2.13;;;18.90;99.90;;;;;;5074251;28;20035;-59
2021/08/05 09:30:42;;;;;;;3.78;2.38;;;18.90;99.90;;;;;;5077295;28;20776;-60
2021/08/05 09:33:10;;;;;;;3.47;2.08;;;19.10;99.90;;;;;;5076886;28;20024;-59
2021/08/05 09:35:37;;;;;;;6.07;2.53;;;19.20;99.90;;;;;;5072695;28;20578;-59
2021/08/05 09:38:20;;;;;;;7.75;2.05;;;19.20;99.90;;;;;;5072377;28;20483;-58
2021/08/05 09:41:08;;;;;;;5.22;2.08;;;19.10;99.90;;;;;;5077973;28;20633;-59
2021/08/05 09:43:36;;;;;;;7.00;2.58;;;18.90;99.90;;;;;;5075911;28;20048;-59
2021/08/05 09:46:01;;;;;;;5.50;2.13;;;18.70;99.90;;;;;;5077961;28;20550;-59
2021/08/05 09:48:41;;;;;;;3.53;1.77;;;18.60;99.90;;;;;;5075621;28;20050;-58
2021/08/05 09:51:12;;;;;;;5.30;2.13;;;18.60;99.90;;;;;;5072538;28;20032;-59
2021/08/05 09:54:04;;;;;;;5.60;2.60;;;18.50;99.90;;;;;;5074065;28;20539;-58
2021/08/05 09:56:32;;;;;;;4.53;2.17;;;18.30;99.90;;;;;;5074103;28;20032;-59
2021/08/05 09:59:14;;;;;;;5.27;2.77;;;18.40;99.90;;;;;;5073936;28;20059;-59
2021/08/05 10:02:01;;;;;;;3.63;2.10;;;18.50;99.90;;;;;;5076609;28;20101;-59
2021/08/05 10:04:28;;;;;;;5.40;2.53;;;18.70;99.90;;;;;;5074154;28;20436;-59
2021/08/05 10:07:07;;;;;;;5.43;2.53;;;18.80;99.90;;;;;;5072160;28;20046;-59
2021/08/05 10:09:35;;;;;;;4.13;2.13;;;18.90;99.90;;;;;;5053555;28;20052;-59
2021/08/05 10:12:19;;;;;;;4.13;2.00;;;19.20;99.90;;;;;;5074547;28;20035;-58
2021/08/05 10:14:47;;;;;;;2.92;2.28;;;19.30;99.90;;;;;;5072548;28;20020;-59
2021/08/05 10:17:14;;;;;;;4.47;1.95;;;19.50;99.90;;;;;;5076622;28;20032;-59
2021/08/05 10:19:44;;;;;;;4.50;1.70;;;19.80;99.90;;;;;;5068478;28;20024;-59
2021/08/05 10:22:13;;;;;;;4.97;2.30;;;20.00;99.90;;;;;;5075700;28;20024;-59
2021/08/05 10:24:42;;;;;;;1.83;1.48;;;20.00;99.90;;;;;;5072564;28;20035;-58
2021/08/05 10:27:11;;;;;;;3.17;1.83;;;19.90;99.90;;;;;;5072174;28;20032;-58
2021/08/05 10:29:39;;;;;;;5.22;1.75;;;20.20;99.90;;;;;;5074119;28;20123;-58
2021/08/05 10:32:07;;;;;;;3.22;1.88;;;20.50;99.90;;;;;;5075440;28;20059;-59
2021/08/05 10:34:35;;;;;;;3.13;1.70;;;20.90;99.90;;;;;;5071455;28;20034;-58
2021/08/05 10:37:03;;;;;;;4.70;1.70;;;21.40;99.90;;;;;;5075283;28;20395;-59
2021/08/05 10:39:30;;;;;;;3.22;1.55;;;21.60;99.90;;;;;;5076343;28;20160;-59
2021/08/05 10:42:00;;;;;;;5.05;1.85;;;22.20;99.90;;;;;;5077660;28;20127;-57
2021/08/05 10:44:26;;;;;;;;;;;22.70;99.90;;;;;;5076591;28;20055;-58
2021/08/05 10:46:57;;;;;;;7.55;2.13;;;22.60;99.90;;;;;;5054842;28;20755;-58
2021/08/05 10:49:24;;;;;;;5.43;1.95;;;21.90;99.90;;;;;;5067918;28;20042;-58
2021/08/05 10:51:51;;;;;;;4.05;2.40;;;21.60;99.90;;;;;;5053721;28;20031;-59
2021/08/05 10:54:55;;;;;;;5.25;1.92;;;21.30;99.90;;;;;;5075751;28;20103;-65
2021/08/05 10:57:23;;;;;;;6.00;1.67;;;21.20;99.90;;;;;;5075234;28;20062;-65
2021/08/05 10:59:59;;;;;;;2.92;1.35;;;21.30;99.90;;;;;;5080294;28;20032;-65
2021/08/05 11:02:53;;;;;;;3.60;2.00;;;21.30;99.90;;;;;;5076370;28;20024;-65
2021/08/05 11:05:21;;;;;;;5.25;2.55;;;21.40;99.90;;;;;;5079956;28;20024;-65
2021/08/05 11:07:48;;;;;;;5.97;2.20;;;21.50;99.90;;;;;;5079040;28;20052;-66
2021/08/05 11:10:14;;;;;;;4.95;1.52;;;22.00;99.90;;;;;;5063259;28;20024;-65
2021/08/05 11:12:50;;;;;;;6.60;1.90;;;22.40;99.90;;;;;;5080617;28;20585;-64
2021/08/05 11:15:36;;;;;;;4.50;1.63;;;22.70;99.90;;;;;;5075550;28;20082;-66
2021/08/05 11:18:14;;;;;;;5.03;1.58;;;22.60;99.90;;;;;;5068945;28;20229;-66
2021/08/05 11:20:51;;;;;;;5.32;1.70;;;22.90;99.90;;;;;;5081476;28;20462;-64
2021/08/05 11:23:27;;;;;;;5.38;1.60;;;22.90;99.90;;;;;;5078855;28;20028;-64
2021/08/05 11:25:53;;;;;;;4.32;1.73;;;23.00;99.90;;;;;;5078792;28;20024;-66
2021/08/05 11:28:30;;;;;;;8.80;2.10;;;22.70;99.90;;;;;;5080989;28;20721;-65
2021/08/05 11:31:04;;;;;;;7.45;2.00;;;22.10;99.90;;;;;;5078277;28;20024;-67
2021/08/05 11:33:40;;;;;;;7.18;1.95;;;21.50;99.90;;;;;;5080682;28;20576;-67
2021/08/05 11:39:15;;;;;;;3.63;2.00;;;20.50;99.90;;;;;;5081095;28;20399;-66
2021/08/05 11:41:53;;;;;;;3.72;1.98;;;20.10;99.90;;;;;;5064066;28;20042;-67
2021/08/05 11:44:39;;;;;;;3.90;1.40;;;20.00;99.90;;;;;;5079554;28;20114;-67
2021/08/05 11:47:05;;;;;;;4.15;1.70;;;19.80;99.90;;;;;;5079019;28;20036;-65
2021/08/05 11:49:34;;;;;;;2.83;1.88;;;19.60;99.90;;;;;;5081691;28;20036;-66
2021/08/05 11:52:25;;;;;;;5.63;2.13;;;19.50;99.90;;;;;;5079393;28;20024;-66
2021/08/05 11:54:59;;;;;;;3.53;1.80;;;19.40;99.90;;;;;;5081393;28;20135;-65
2021/08/05 11:57:27;;;;;;;3.63;1.92;;;19.40;99.90;;;;;;5078364;28;20085;-66
2021/08/05 11:59:55;;;;;;;2.28;1.55;;;19.20;99.90;;;;;;5080217;28;20496;-66
2021/08/05 12:02:24;;;;;;;3.65;1.98;;;18.90;99.90;;;;;;5078173;28;20028;-65
2021/08/05 12:04:52;;;;;;;3.20;1.90;;;18.70;99.90;;;;;;5078504;28;20304;-64
2021/08/05 12:07:21;;;;;;;2.13;1.77;;;18.40;99.90;;;;;;5080535;28;20092;-62
2021/08/05 12:09:55;;;;;;;4.40;1.98;;;18.10;99.90;;;;;;5078728;28;20120;-63
2021/08/05 12:12:23;;;;;;;2.67;1.90;;;17.90;99.90;;;;;;5080469;28;20064;-63
2021/08/05 12:14:53;;;;;;;2.53;1.90;;;17.80;99.90;;;;;;5080090;28;20028;-62
2021/08/05 12:17:43;;;;;;;2.95;2.10;;;18.00;99.90;;;;;;5080428;28;20040;-61
2021/08/05 12:20:12;;;;;;;5.15;2.05;;;18.20;99.90;;;;;;5077836;28;20047;-62
2021/08/05 12:22:44;;;;;;;6.05;2.42;;;18.30;99.90;;;;;;5079669;28;20028;-61
2021/08/05 12:25:29;;;;;;;3.80;2.00;;;18.40;99.90;;;;;;5079203;28;20032;-62
2021/08/05 12:27:57;;;;;;;2.97;2.15;;;18.40;99.90;;;;;;5079530;28;20036;-63
2021/08/05 12:30:32;;;;;;;2.97;2.25;;;18.50;99.90;;;;;;5078754;28;20511;-61
2021/08/05 12:33:01;;;;;;;5.70;1.90;;;18.60;99.90;;;;;;5078947;28;20082;-61
2021/08/05 12:35:27;;;;;;;4.65;2.00;;;18.70;99.90;;;;;;5080213;28;20034;-61
2021/08/05 12:38:08;;;;;;;2.65;1.98;;;18.80;99.90;;;;;;5079719;28;20067;-62
2021/08/05 12:40:36;;;;;;;5.32;1.85;;;19.00;99.90;;;;;;5059206;28;20036;-64
2021/08/05 12:43:05;;;;;;;2.47;1.67;;;19.10;99.90;;;;;;5074120;28;20179;-62
2021/08/05 12:45:40;;;;;;;5.53;2.17;;;19.30;99.90;;;;;;5075539;28;20097;-62
2021/08/05 12:48:06;;;;;;;2.92;1.75;;;19.40;99.90;;;;;;5078634;28;20040;-65
2021/08/05 12:50:42;;;;;;;2.70;1.95;;;19.50;99.90;;;;;;5080103;28;20031;-64
2021/08/05 12:53:09;;;;;;;3.38;2.20;;;19.40;99.90;;;;;;5079712;28;20035;-63
2021/08/05 12:55:51;;;;;;;2.78;2.10;;;19.30;99.90;;;;;;5077223;28;20047;-64
2021/08/05 12:58:18;;;;;;;3.13;1.90;;;19.30;99.90;;;;;;5078748;28;20077;-63
2021/08/05 13:00:44;;;;;;;4.00;1.95;;;19.20;99.90;;;;;;5079562;28;20020;-67
2021/08/05 13:03:10;;;;;;;3.95;1.95;;;19.10;99.90;;;;;;5061564;28;20024;-63
2021/08/05 13:05:51;;;;;;;5.47;1.95;;;18.90;99.90;;;;;;5077047;28;20087;-66
2021/08/05 13:08:31;;;;;;;2.35;1.90;;;18.80;99.90;;;;;;5056469;28;20020;-64
2021/08/05 13:10:58;;;;;;;3.13;1.92;;;18.80;99.90;;;;;;5079963;28;20081;-65
2021/08/05 13:13:53;;;;;;;2.85;2.10;;;18.70;99.90;;;;;;5077948;28;20535;-65
2021/08/05 13:16:26;;;;;;;3.55;2.03;;;18.80;99.90;;;;;;5076202;28;20028;-65
2021/08/05 13:18:59;;;;;;;3.47;2.10;;;18.70;99.90;;;;;;5079249;28;20818;-65
2021/08/05 13:21:25;;;;;;;4.50;2.22;;;18.60;99.90;;;;;;5078835;28;20471;-65
2021/08/05 13:23:51;;;;;;;3.67;2.28;;;18.50;99.90;;;;;;5058463;28;20035;-66